Terminal Aerodrome Forecast
Issued by NWS Sioux Falls, SD

Home | Current Version | Previous Version | Text Only | Print | Product List | Glossary On
Versions: 1 2 3 4 5 6 7 8 9 10 11 12 13 14 15 16 17 18
000
FTUS43 KFSD 280520
TAFFSD
TAF
KFSD 280520Z 2806/2906 18005KT P6SM SCT090 BKN200
     FM281000 17009KT P6SM BKN080
     FM281500 18015G24KT P6SM SCT040 BKN100
     FM290100 17008KT P6SM SCT050 BKN250=

USA.gov is the U.S. government's official web portal to all federal, state and local government web resources and services.